sensor_id;sensor_type;location;lat;lon;timestamp;P1;durP1;ratioP1;P2;durP2;ratioP2
19877;SDS011;10101;52.204;9.910;2023-03-01T00:01:15;9.60;;;5.77;;
19877;SDS011;10101;52.204;9.910;2023-03-01T00:03:43;11.30;;;6.00;;
19877;SDS011;10101;52.204;9.910;2023-03-01T00:06:10;8.63;;;5.60;;
19877;SDS011;10101;52.204;9.910;2023-03-01T00:08:37;11.50;;;5.80;;
19877;SDS011;10101;52.204;9.910;2023-03-01T00:11:05;10.27;;;5.63;;
19877;SDS011;10101;52.204;9.910;2023-03-01T00:13:34;12.13;;;5.97;;
19877;SDS011;10101;52.204;9.910;2023-03-01T00:16:04;12.63;;;6.90;;
19877;SDS011;10101;52.204;9.910;2023-03-01T00:18:32;13.17;;;6.80;;
19877;SDS011;10101;52.204;9.910;2023-03-01T00:20:59;11.10;;;6.80;;
19877;SDS011;10101;52.204;9.910;2023-03-01T00:23:26;10.67;;;6.20;;
19877;SDS011;10101;52.204;9.910;2023-03-01T00:25:53;10.70;;;6.30;;
19877;SDS011;10101;52.204;9.910;2023-03-01T00:28:20;10.93;;;6.27;;
19877;SDS011;10101;52.204;9.910;2023-03-01T00:30:47;10.17;;;5.70;;
19877;SDS011;10101;52.204;9.910;2023-03-01T00:33:15;12.40;;;6.13;;
19877;SDS011;10101;52.204;9.910;2023-03-01T00:35:42;12.33;;;6.73;;
19877;SDS011;10101;52.204;9.910;2023-03-01T00:38:09;11.03;;;6.20;;
19877;SDS011;10101;52.204;9.910;2023-03-01T00:40:36;8.00;;;5.50;;
19877;SDS011;10101;52.204;9.910;2023-03-01T00:43:03;10.37;;;5.90;;
19877;SDS011;10101;52.204;9.910;2023-03-01T00:45:30;11.27;;;6.77;;
19877;SDS011;10101;52.204;9.910;2023-03-01T00:47:58;11.47;;;6.03;;
19877;SDS011;10101;52.204;9.910;2023-03-01T00:50:26;9.57;;;5.97;;
19877;SDS011;10101;52.204;9.910;2023-03-01T00:52:53;12.93;;;6.30;;
19877;SDS011;10101;52.204;9.910;2023-03-01T00:55:21;13.47;;;6.73;;
19877;SDS011;10101;52.204;9.910;2023-03-01T00:57:48;10.23;;;5.77;;
19877;SDS011;10101;52.204;9.910;2023-03-01T01:00:15;12.03;;;6.20;;
19877;SDS011;10101;52.204;9.910;2023-03-01T01:02:42;10.73;;;5.97;;
19877;SDS011;10101;52.204;9.910;2023-03-01T01:05:10;12.67;;;6.47;;
19877;SDS011;10101;52.204;9.910;2023-03-01T01:07:38;11.40;;;6.07;;
19877;SDS011;10101;52.204;9.910;2023-03-01T01:10:06;10.53;;;5.80;;
19877;SDS011;10101;52.204;9.910;2023-03-01T01:12:37;10.47;;;6.00;;
19877;SDS011;10101;52.204;9.910;2023-03-01T01:15:04;12.10;;;6.23;;
19877;SDS011;10101;52.204;9.910;2023-03-01T01:17:32;14.00;;;6.77;;
19877;SDS011;10101;52.204;9.910;2023-03-01T01:19:59;10.37;;;5.83;;
19877;SDS011;10101;52.204;9.910;2023-03-01T01:22:26;8.70;;;6.27;;
19877;SDS011;10101;52.204;9.910;2023-03-01T01:24:54;11.00;;;6.10;;
19877;SDS011;10101;52.204;9.910;2023-03-01T01:27:21;11.07;;;6.37;;
19877;SDS011;10101;52.204;9.910;2023-03-01T01:29:47;12.43;;;6.13;;
19877;SDS011;10101;52.204;9.910;2023-03-01T01:32:14;11.33;;;5.93;;
19877;SDS011;10101;52.204;9.910;2023-03-01T01:34:41;10.80;;;6.03;;
19877;SDS011;10101;52.204;9.910;2023-03-01T01:37:08;12.80;;;6.33;;
19877;SDS011;10101;52.204;9.910;2023-03-01T01:39:34;9.40;;;5.80;;
19877;SDS011;10101;52.204;9.910;2023-03-01T01:42:03;16.40;;;6.70;;
19877;SDS011;10101;52.204;9.910;2023-03-01T01:44:30;11.83;;;6.40;;
19877;SDS011;10101;52.204;9.910;2023-03-01T01:46:57;11.47;;;6.87;;
19877;SDS011;10101;52.204;9.910;2023-03-01T01:49:28;13.20;;;6.00;;
19877;SDS011;10101;52.204;9.910;2023-03-01T01:51:59;10.10;;;5.93;;
19877;SDS011;10101;52.204;9.910;2023-03-01T01:54:31;10.77;;;6.10;;
19877;SDS011;10101;52.204;9.910;2023-03-01T01:57:07;10.50;;;6.00;;
19877;SDS011;10101;52.204;9.910;2023-03-01T01:59:37;10.27;;;5.43;;
19877;SDS011;10101;52.204;9.910;2023-03-01T02:02:06;9.93;;;5.77;;
19877;SDS011;10101;52.204;9.910;2023-03-01T02:04:32;12.97;;;6.17;;
19877;SDS011;10101;52.204;9.910;2023-03-01T02:07:00;9.17;;;5.07;;
19877;SDS011;10101;52.204;9.910;2023-03-01T02:09:30;9.90;;;5.50;;
19877;SDS011;10101;52.204;9.910;2023-03-01T02:11:58;12.37;;;5.73;;
19877;SDS011;10101;52.204;9.910;2023-03-01T02:14:26;10.40;;;5.90;;
19877;SDS011;10101;52.204;9.910;2023-03-01T02:16:53;9.23;;;5.57;;
19877;SDS011;10101;52.204;9.910;2023-03-01T02:19:22;10.53;;;5.20;;
19877;SDS011;10101;52.204;9.910;2023-03-01T02:22:06;11.40;;;5.80;;
19877;SDS011;10101;52.204;9.910;2023-03-01T02:24:43;11.70;;;5.83;;
19877;SDS011;10101;52.204;9.910;2023-03-01T02:27:17;12.67;;;5.70;;
19877;SDS011;10101;52.204;9.910;2023-03-01T02:29:51;11.50;;;5.63;;
19877;SDS011;10101;52.204;9.910;2023-03-01T02:32:18;12.33;;;6.00;;
19877;SDS011;10101;52.204;9.910;2023-03-01T02:34:49;10.87;;;5.87;;
19877;SDS011;10101;52.204;9.910;2023-03-01T02:37:17;13.50;;;5.93;;
19877;SDS011;10101;52.204;9.910;2023-03-01T02:39:50;9.90;;;5.43;;
19877;SDS011;10101;52.204;9.910;2023-03-01T02:42:23;10.33;;;5.37;;
19877;SDS011;10101;52.204;9.910;2023-03-01T02:44:55;9.60;;;6.10;;
19877;SDS011;10101;52.204;9.910;2023-03-01T02:47:22;12.27;;;5.67;;
19877;SDS011;10101;52.204;9.910;2023-03-01T02:49:49;9.93;;;5.90;;
19877;SDS011;10101;52.204;9.910;2023-03-01T02:55:10;9.53;;;5.70;;
19877;SDS011;10101;52.204;9.910;2023-03-01T02:57:39;11.07;;;5.80;;
19877;SDS011;10101;52.204;9.910;2023-03-01T03:00:10;9.97;;;5.60;;
19877;SDS011;10101;52.204;9.910;2023-03-01T03:02:44;10.63;;;5.67;;
19877;SDS011;10101;52.204;9.910;2023-03-01T03:05:12;7.77;;;5.13;;
19877;SDS011;10101;52.204;9.910;2023-03-01T03:07:41;9.53;;;5.93;;
19877;SDS011;10101;52.204;9.910;2023-03-01T03:10:10;9.30;;;5.37;;
19877;SDS011;10101;52.204;9.910;2023-03-01T03:12:39;13.50;;;5.90;;
19877;SDS011;10101;52.204;9.910;2023-03-01T03:15:06;9.23;;;4.97;;
19877;SDS011;10101;52.204;9.910;2023-03-01T03:17:37;10.37;;;5.80;;
19877;SDS011;10101;52.204;9.910;2023-03-01T03:20:06;9.37;;;5.63;;
19877;SDS011;10101;52.204;9.910;2023-03-01T03:22:36;9.43;;;5.60;;
19877;SDS011;10101;52.204;9.910;2023-03-01T03:25:04;10.53;;;6.17;;
19877;SDS011;10101;52.204;9.910;2023-03-01T03:27:35;8.90;;;5.57;;
19877;SDS011;10101;52.204;9.910;2023-03-01T03:30:03;10.63;;;5.80;;
19877;SDS011;10101;52.204;9.910;2023-03-01T03:32:35;10.97;;;5.80;;
19877;SDS011;10101;52.204;9.910;2023-03-01T03:35:02;10.43;;;5.73;;
19877;SDS011;10101;52.204;9.910;2023-03-01T03:37:34;10.33;;;5.43;;
19877;SDS011;10101;52.204;9.910;2023-03-01T03:40:19;9.43;;;5.57;;
19877;SDS011;10101;52.204;9.910;2023-03-01T03:42:46;10.13;;;6.07;;
19877;SDS011;10101;52.204;9.910;2023-03-01T03:45:13;9.60;;;5.40;;
19877;SDS011;10101;52.204;9.910;2023-03-01T03:47:41;8.27;;;5.07;;
19877;SDS011;10101;52.204;9.910;2023-03-01T03:50:09;8.93;;;5.40;;
19877;SDS011;10101;52.204;9.910;2023-03-01T03:52:36;8.67;;;5.30;;
19877;SDS011;10101;52.204;9.910;2023-03-01T03:55:03;9.40;;;5.63;;
19877;SDS011;10101;52.204;9.910;2023-03-01T03:57:34;10.60;;;5.37;;
19877;SDS011;10101;52.204;9.910;2023-03-01T04:00:01;10.10;;;5.67;;
19877;SDS011;10101;52.204;9.910;2023-03-01T04:02:30;10.17;;;5.43;;
19877;SDS011;10101;52.204;9.910;2023-03-01T04:04:58;9.33;;;5.67;;
19877;SDS011;10101;52.204;9.910;2023-03-01T04:07:25;8.27;;;5.70;;
19877;SDS011;10101;52.204;9.910;2023-03-01T04:09:51;9.00;;;4.73;;
19877;SDS011;10101;52.204;9.910;2023-03-01T04:12:18;11.33;;;5.20;;
19877;SDS011;10101;52.204;9.910;2023-03-01T04:14:48;8.07;;;4.93;;
19877;SDS011;10101;52.204;9.910;2023-03-01T04:17:14;9.13;;;5.30;;
19877;SDS011;10101;52.204;9.910;2023-03-01T04:19:41;10.30;;;6.03;;
19877;SDS011;10101;52.204;9.910;2023-03-01T04:22:10;10.10;;;5.73;;
19877;SDS011;10101;52.204;9.910;2023-03-01T04:24:42;11.50;;;4.90;;
19877;SDS011;10101;52.204;9.910;2023-03-01T04:27:09;9.87;;;5.93;;
19877;SDS011;10101;52.204;9.910;2023-03-01T04:29:36;8.23;;;5.03;;
19877;SDS011;10101;52.204;9.910;2023-03-01T04:32:03;10.93;;;5.53;;
19877;SDS011;10101;52.204;9.910;2023-03-01T04:34:30;8.77;;;4.70;;
19877;SDS011;10101;52.204;9.910;2023-03-01T04:36:57;14.13;;;5.37;;
19877;SDS011;10101;52.204;9.910;2023-03-01T04:39:25;9.53;;;5.70;;
19877;SDS011;10101;52.204;9.910;2023-03-01T04:41:51;9.17;;;5.13;;
19877;SDS011;10101;52.204;9.910;2023-03-01T04:44:18;10.40;;;5.27;;
19877;SDS011;10101;52.204;9.910;2023-03-01T04:46:45;10.13;;;5.87;;
19877;SDS011;10101;52.204;9.910;2023-03-01T04:49:14;9.07;;;5.07;;
19877;SDS011;10101;52.204;9.910;2023-03-01T04:51:41;9.63;;;5.20;;
19877;SDS011;10101;52.204;9.910;2023-03-01T04:54:08;10.17;;;4.90;;
19877;SDS011;10101;52.204;9.910;2023-03-01T04:56:36;8.23;;;4.80;;
19877;SDS011;10101;52.204;9.910;2023-03-01T04:59:03;8.73;;;5.30;;
19877;SDS011;10101;52.204;9.910;2023-03-01T05:01:30;7.77;;;5.10;;
19877;SDS011;10101;52.204;9.910;2023-03-01T05:03:57;10.00;;;5.70;;
19877;SDS011;10101;52.204;9.910;2023-03-01T05:06:28;8.97;;;5.40;;
19877;SDS011;10101;52.204;9.910;2023-03-01T05:08:54;10.43;;;4.97;;
19877;SDS011;10101;52.204;9.910;2023-03-01T05:11:21;8.10;;;5.03;;
19877;SDS011;10101;52.204;9.910;2023-03-01T05:13:49;9.60;;;5.00;;
19877;SDS011;10101;52.204;9.910;2023-03-01T05:16:19;7.83;;;4.70;;
19877;SDS011;10101;52.204;9.910;2023-03-01T05:18:46;9.60;;;4.87;;
19877;SDS011;10101;52.204;9.910;2023-03-01T05:21:15;12.13;;;5.17;;
19877;SDS011;10101;52.204;9.910;2023-03-01T05:23:42;8.27;;;4.83;;
19877;SDS011;10101;52.204;9.910;2023-03-01T05:26:09;12.23;;;5.27;;
19877;SDS011;10101;52.204;9.910;2023-03-01T05:28:37;10.53;;;5.37;;
19877;SDS011;10101;52.204;9.910;2023-03-01T05:31:06;7.83;;;4.83;;
19877;SDS011;10101;52.204;9.910;2023-03-01T05:33:35;8.30;;;4.80;;
19877;SDS011;10101;52.204;9.910;2023-03-01T05:36:02;9.23;;;5.20;;
19877;SDS011;10101;52.204;9.910;2023-03-01T05:38:29;9.57;;;5.23;;
19877;SDS011;10101;52.204;9.910;2023-03-01T05:40:56;7.77;;;5.17;;
19877;SDS011;10101;52.204;9.910;2023-03-01T05:43:23;8.67;;;4.83;;
19877;SDS011;10101;52.204;9.910;2023-03-01T05:45:50;12.90;;;6.40;;
19877;SDS011;10101;52.204;9.910;2023-03-01T05:48:18;12.20;;;6.30;;
19877;SDS011;10101;52.204;9.910;2023-03-01T05:50:46;11.80;;;6.47;;
19877;SDS011;10101;52.204;9.910;2023-03-01T05:53:14;11.10;;;5.83;;
19877;SDS011;10101;52.204;9.910;2023-03-01T05:55:45;10.40;;;5.73;;
19877;SDS011;10101;52.204;9.910;2023-03-01T05:58:13;9.40;;;5.00;;
19877;SDS011;10101;52.204;9.910;2023-03-01T06:00:42;10.20;;;5.50;;
19877;SDS011;10101;52.204;9.910;2023-03-01T06:03:10;8.57;;;5.00;;
19877;SDS011;10101;52.204;9.910;2023-03-01T06:05:39;10.93;;;5.00;;
19877;SDS011;10101;52.204;9.910;2023-03-01T06:08:06;8.00;;;4.73;;
19877;SDS011;10101;52.204;9.910;2023-03-01T06:10:35;10.40;;;5.30;;
19877;SDS011;10101;52.204;9.910;2023-03-01T06:13:02;9.00;;;4.53;;
19877;SDS011;10101;52.204;9.910;2023-03-01T06:15:29;11.23;;;5.53;;
19877;SDS011;10101;52.204;9.910;2023-03-01T06:17:55;8.50;;;4.93;;
19877;SDS011;10101;52.204;9.910;2023-03-01T06:20:23;7.87;;;4.73;;
19877;SDS011;10101;52.204;9.910;2023-03-01T06:22:53;11.87;;;5.33;;
19877;SDS011;10101;52.204;9.910;2023-03-01T06:25:21;11.13;;;5.93;;
19877;SDS011;10101;52.204;9.910;2023-03-01T06:27:48;11.77;;;5.87;;
19877;SDS011;10101;52.204;9.910;2023-03-01T06:30:17;9.23;;;5.23;;
19877;SDS011;10101;52.204;9.910;2023-03-01T06:32:45;10.57;;;5.23;;
19877;SDS011;10101;52.204;9.910;2023-03-01T06:35:12;12.70;;;5.93;;
19877;SDS011;10101;52.204;9.910;2023-03-01T06:37:42;10.37;;;5.37;;
19877;SDS011;10101;52.204;9.910;2023-03-01T06:40:12;9.43;;;4.90;;
19877;SDS011;10101;52.204;9.910;2023-03-01T06:42:40;8.80;;;5.00;;
19877;SDS011;10101;52.204;9.910;2023-03-01T06:45:08;10.47;;;5.40;;
19877;SDS011;10101;52.204;9.910;2023-03-01T06:47:36;11.23;;;5.10;;
19877;SDS011;10101;52.204;9.910;2023-03-01T06:50:03;10.07;;;5.47;;
19877;SDS011;10101;52.204;9.910;2023-03-01T06:52:30;9.63;;;5.13;;
19877;SDS011;10101;52.204;9.910;2023-03-01T06:54:57;10.27;;;5.30;;
19877;SDS011;10101;52.204;9.910;2023-03-01T06:57:25;7.17;;;4.77;;
19877;SDS011;10101;52.204;9.910;2023-03-01T06:59:52;11.63;;;5.57;;
19877;SDS011;10101;52.204;9.910;2023-03-01T07:02:18;10.50;;;5.70;;
19877;SDS011;10101;52.204;9.910;2023-03-01T07:04:45;12.23;;;4.97;;
19877;SDS011;10101;52.204;9.910;2023-03-01T07:07:12;9.63;;;5.07;;
19877;SDS011;10101;52.204;9.910;2023-03-01T07:09:39;8.13;;;4.90;;
19877;SDS011;10101;52.204;9.910;2023-03-01T07:12:06;8.80;;;4.60;;
19877;SDS011;10101;52.204;9.910;2023-03-01T07:14:34;8.10;;;4.77;;
19877;SDS011;10101;52.204;9.910;2023-03-01T07:17:01;10.87;;;4.67;;
19877;SDS011;10101;52.204;9.910;2023-03-01T07:19:28;13.37;;;5.00;;
19877;SDS011;10101;52.204;9.910;2023-03-01T07:21:55;8.40;;;4.63;;
19877;SDS011;10101;52.204;9.910;2023-03-01T07:24:21;11.10;;;5.27;;
19877;SDS011;10101;52.204;9.910;2023-03-01T07:26:49;9.27;;;5.53;;
19877;SDS011;10101;52.204;9.910;2023-03-01T07:29:16;8.77;;;5.40;;
19877;SDS011;10101;52.204;9.910;2023-03-01T07:31:44;8.77;;;5.50;;
19877;SDS011;10101;52.204;9.910;2023-03-01T07:34:11;9.50;;;5.77;;
19877;SDS011;10101;52.204;9.910;2023-03-01T07:36:38;8.83;;;5.77;;
19877;SDS011;10101;52.204;9.910;2023-03-01T07:39:08;9.00;;;5.90;;
19877;SDS011;10101;52.204;9.910;2023-03-01T07:41:35;9.37;;;6.13;;
19877;SDS011;10101;52.204;9.910;2023-03-01T07:44:02;10.67;;;6.10;;
19877;SDS011;10101;52.204;9.910;2023-03-01T07:46:29;8.43;;;5.73;;
19877;SDS011;10101;52.204;9.910;2023-03-01T07:48:57;10.67;;;5.67;;
19877;SDS011;10101;52.204;9.910;2023-03-01T07:51:24;8.67;;;5.83;;
19877;SDS011;10101;52.204;9.910;2023-03-01T07:53:50;10.03;;;6.17;;
19877;SDS011;10101;52.204;9.910;2023-03-01T07:56:17;8.50;;;5.90;;
19877;SDS011;10101;52.204;9.910;2023-03-01T07:58:44;12.40;;;6.10;;
19877;SDS011;10101;52.204;9.910;2023-03-01T08:01:12;12.13;;;6.40;;
19877;SDS011;10101;52.204;9.910;2023-03-01T08:03:40;11.13;;;6.13;;
19877;SDS011;10101;52.204;9.910;2023-03-01T08:06:10;10.23;;;6.53;;
19877;SDS011;10101;52.204;9.910;2023-03-01T08:08:38;11.77;;;6.63;;
19877;SDS011;10101;52.204;9.910;2023-03-01T08:11:06;10.83;;;6.67;;
19877;SDS011;10101;52.204;9.910;2023-03-01T08:13:33;14.53;;;6.57;;
19877;SDS011;10101;52.204;9.910;2023-03-01T08:16:01;11.57;;;7.30;;
19877;SDS011;10101;52.204;9.910;2023-03-01T08:18:28;10.60;;;7.20;;
19877;SDS011;10101;52.204;9.910;2023-03-01T08:20:55;10.53;;;7.07;;
19877;SDS011;10101;52.204;9.910;2023-03-01T08:23:23;10.83;;;7.03;;
19877;SDS011;10101;52.204;9.910;2023-03-01T08:25:50;13.03;;;7.03;;
19877;SDS011;10101;52.204;9.910;2023-03-01T08:28:17;11.37;;;6.90;;
19877;SDS011;10101;52.204;9.910;2023-03-01T08:30:44;12.80;;;7.40;;
19877;SDS011;10101;52.204;9.910;2023-03-01T08:33:11;13.00;;;7.80;;
19877;SDS011;10101;52.204;9.910;2023-03-01T08:35:37;13.13;;;7.87;;
19877;SDS011;10101;52.204;9.910;2023-03-01T08:38:04;13.57;;;7.53;;
19877;SDS011;10101;52.204;9.910;2023-03-01T08:40:32;14.97;;;7.80;;
19877;SDS011;10101;52.204;9.910;2023-03-01T08:42:59;12.10;;;7.23;;
19877;SDS011;10101;52.204;9.910;2023-03-01T08:45:26;14.03;;;6.80;;
19877;SDS011;10101;52.204;9.910;2023-03-01T08:47:53;14.13;;;7.93;;
19877;SDS011;10101;52.204;9.910;2023-03-01T08:50:19;13.40;;;8.03;;
19877;SDS011;10101;52.204;9.910;2023-03-01T08:52:46;16.37;;;8.23;;
19877;SDS011;10101;52.204;9.910;2023-03-01T08:55:13;14.70;;;7.53;;
19877;SDS011;10101;52.204;9.910;2023-03-01T08:57:42;13.73;;;8.47;;
19877;SDS011;10101;52.204;9.910;2023-03-01T09:00:10;11.40;;;7.73;;
19877;SDS011;10101;52.204;9.910;2023-03-01T09:02:39;18.40;;;8.80;;
19877;SDS011;10101;52.204;9.910;2023-03-01T09:05:06;13.87;;;8.77;;
19877;SDS011;10101;52.204;9.910;2023-03-01T09:07:34;11.20;;;7.53;;
19877;SDS011;10101;52.204;9.910;2023-03-01T09:10:00;12.60;;;7.87;;
19877;SDS011;10101;52.204;9.910;2023-03-01T09:12:27;14.97;;;7.53;;
19877;SDS011;10101;52.204;9.910;2023-03-01T09:14:55;11.07;;;7.67;;
19877;SDS011;10101;52.204;9.910;2023-03-01T09:17:22;13.97;;;7.20;;
19877;SDS011;10101;52.204;9.910;2023-03-01T09:19:49;11.13;;;6.70;;
19877;SDS011;10101;52.204;9.910;2023-03-01T09:22:15;12.33;;;6.87;;
19877;SDS011;10101;52.204;9.910;2023-03-01T09:24:42;10.97;;;6.27;;
19877;SDS011;10101;52.204;9.910;2023-03-01T09:27:09;13.47;;;7.40;;
19877;SDS011;10101;52.204;9.910;2023-03-01T09:29:37;12.13;;;7.03;;
19877;SDS011;10101;52.204;9.910;2023-03-01T09:32:06;12.13;;;7.10;;
19877;SDS011;10101;52.204;9.910;2023-03-01T09:34:33;13.67;;;7.40;;
19877;SDS011;10101;52.204;9.910;2023-03-01T09:37:20;15.23;;;6.57;;
19877;SDS011;10101;52.204;9.910;2023-03-01T09:39:47;13.90;;;7.70;;
19877;SDS011;10101;52.204;9.910;2023-03-01T09:42:13;11.67;;;6.17;;
19877;SDS011;10101;52.204;9.910;2023-03-01T09:44:42;11.63;;;6.23;;
19877;SDS011;10101;52.204;9.910;2023-03-01T09:47:17;10.87;;;6.23;;
19877;SDS011;10101;52.204;9.910;2023-03-01T09:49:45;9.50;;;6.43;;
19877;SDS011;10101;52.204;9.910;2023-03-01T09:52:21;9.67;;;6.50;;
19877;SDS011;10101;52.204;9.910;2023-03-01T09:54:55;11.13;;;6.43;;
19877;SDS011;10101;52.204;9.910;2023-03-01T09:57:26;11.20;;;5.50;;
19877;SDS011;10101;52.204;9.910;2023-03-01T10:00:07;10.33;;;5.93;;
19877;SDS011;10101;52.204;9.910;2023-03-01T10:02:43;10.93;;;6.50;;
19877;SDS011;10101;52.204;9.910;2023-03-01T10:05:23;9.10;;;5.87;;
19877;SDS011;10101;52.204;9.910;2023-03-01T10:07:59;9.80;;;5.83;;
19877;SDS011;10101;52.204;9.910;2023-03-01T10:10:56;8.00;;;5.03;;
19877;SDS011;10101;52.204;9.910;2023-03-01T10:13:24;8.77;;;5.33;;
19877;SDS011;10101;52.204;9.910;2023-03-01T10:15:54;8.97;;;4.77;;
19877;SDS011;10101;52.204;9.910;2023-03-01T10:18:25;9.47;;;5.10;;
19877;SDS011;10101;52.204;9.910;2023-03-01T10:20:54;15.30;;;6.17;;
19877;SDS011;10101;52.204;9.910;2023-03-01T10:23:24;8.57;;;5.10;;
19877;SDS011;10101;52.204;9.910;2023-03-01T10:25:56;8.27;;;4.87;;
19877;SDS011;10101;52.204;9.910;2023-03-01T10:28:37;13.30;;;4.93;;
19877;SDS011;10101;52.204;9.910;2023-03-01T10:31:09;7.70;;;4.77;;
19877;SDS011;10101;52.204;9.910;2023-03-01T10:33:40;8.17;;;5.47;;
19877;SDS011;10101;52.204;9.910;2023-03-01T10:36:08;8.10;;;4.97;;
19877;SDS011;10101;52.204;9.910;2023-03-01T10:38:46;8.67;;;5.27;;
19877;SDS011;10101;52.204;9.910;2023-03-01T10:41:17;9.17;;;4.73;;
19877;SDS011;10101;52.204;9.910;2023-03-01T10:43:45;9.93;;;4.47;;
19877;SDS011;10101;52.204;9.910;2023-03-01T10:46:22;10.03;;;4.80;;
19877;SDS011;10101;52.204;9.910;2023-03-01T10:49:10;8.50;;;4.37;;
19877;SDS011;10101;52.204;9.910;2023-03-01T10:51:41;9.20;;;4.70;;
19877;SDS011;10101;52.204;9.910;2023-03-01T10:54:15;8.57;;;4.47;;
19877;SDS011;10101;52.204;9.910;2023-03-01T10:56:47;6.33;;;3.63;;
19877;SDS011;10101;52.204;9.910;2023-03-01T10:59:21;6.97;;;4.43;;
19877;SDS011;10101;52.204;9.910;2023-03-01T11:02:02;7.53;;;4.20;;
19877;SDS011;10101;52.204;9.910;2023-03-01T11:04:39;9.03;;;4.07;;
19877;SDS011;10101;52.204;9.910;2023-03-01T11:07:07;7.17;;;4.60;;
19877;SDS011;10101;52.204;9.910;2023-03-01T11:09:33;9.43;;;4.27;;
19877;SDS011;10101;52.204;9.910;2023-03-01T11:12:03;7.73;;;4.03;;
19877;SDS011;10101;52.204;9.910;2023-03-01T11:14:39;9.00;;;4.70;;
19877;SDS011;10101;52.204;9.910;2023-03-01T11:17:14;8.17;;;4.00;;
19877;SDS011;10101;52.204;9.910;2023-03-01T11:19:45;6.20;;;3.67;;
19877;SDS011;10101;52.204;9.910;2023-03-01T11:22:26;6.27;;;3.90;;
19877;SDS011;10101;52.204;9.910;2023-03-01T11:24:54;6.87;;;4.00;;
19877;SDS011;10101;52.204;9.910;2023-03-01T11:27:24;6.90;;;3.80;;
19877;SDS011;10101;52.204;9.910;2023-03-01T11:29:55;6.27;;;3.63;;
19877;SDS011;10101;52.204;9.910;2023-03-01T11:32:26;6.60;;;3.90;;
19877;SDS011;10101;52.204;9.910;2023-03-01T11:35:01;7.13;;;3.90;;
19877;SDS011;10101;52.204;9.910;2023-03-01T11:37:34;10.10;;;4.23;;
19877;SDS011;10101;52.204;9.910;2023-03-01T11:40:07;7.17;;;3.73;;
19877;SDS011;10101;52.204;9.910;2023-03-01T11:42:42;7.20;;;4.13;;
19877;SDS011;10101;52.204;9.910;2023-03-01T11:45:14;7.97;;;3.90;;
19877;SDS011;10101;52.204;9.910;2023-03-01T11:47:44;7.47;;;3.80;;
19877;SDS011;10101;52.204;9.910;2023-03-01T11:50:28;8.87;;;3.87;;
19877;SDS011;10101;52.204;9.910;2023-03-01T11:55:58;7.40;;;3.60;;
19877;SDS011;10101;52.204;9.910;2023-03-01T11:58:38;9.00;;;4.30;;
19877;SDS011;10101;52.204;9.910;2023-03-01T12:01:23;9.17;;;4.07;;
19877;SDS011;10101;52.204;9.910;2023-03-01T12:04:10;7.23;;;4.00;;
19877;SDS011;10101;52.204;9.910;2023-03-01T12:06:56;6.37;;;3.67;;
19877;SDS011;10101;52.204;9.910;2023-03-01T12:09:36;8.70;;;4.00;;
19877;SDS011;10101;52.204;9.910;2023-03-01T12:12:26;7.50;;;4.20;;
19877;SDS011;10101;52.204;9.910;2023-03-01T12:15:11;8.03;;;3.83;;
19877;SDS011;10101;52.204;9.910;2023-03-01T12:17:58;6.23;;;3.80;;
19877;SDS011;10101;52.204;9.910;2023-03-01T12:20:50;6.40;;;3.43;;
19877;SDS011;10101;52.204;9.910;2023-03-01T12:23:29;8.00;;;3.63;;
19877;SDS011;10101;52.204;9.910;2023-03-01T12:26:17;6.47;;;3.77;;
19877;SDS011;10101;52.204;9.910;2023-03-01T12:28:52;6.10;;;4.00;;
19877;SDS011;10101;52.204;9.910;2023-03-01T12:34:47;5.43;;;3.33;;
19877;SDS011;10101;52.204;9.910;2023-03-01T12:37:42;6.40;;;3.67;;
19877;SDS011;10101;52.204;9.910;2023-03-01T12:40:29;9.10;;;3.77;;
19877;SDS011;10101;52.204;9.910;2023-03-01T12:43:15;6.67;;;3.47;;
19877;SDS011;10101;52.204;9.910;2023-03-01T12:45:54;7.20;;;3.60;;
19877;SDS011;10101;52.204;9.910;2023-03-01T12:48:40;7.07;;;3.57;;
19877;SDS011;10101;52.204;9.910;2023-03-01T12:51:16;4.87;;;3.30;;
19877;SDS011;10101;52.204;9.910;2023-03-01T12:53:47;6.50;;;3.63;;
19877;SDS011;10101;52.204;9.910;2023-03-01T12:56:18;6.27;;;3.53;;
19877;SDS011;10101;52.204;9.910;2023-03-01T12:58:50;6.07;;;3.27;;
19877;SDS011;10101;52.204;9.910;2023-03-01T13:01:28;5.63;;;2.80;;
19877;SDS011;10101;52.204;9.910;2023-03-01T13:06:50;5.00;;;3.27;;
19877;SDS011;10101;52.204;9.910;2023-03-01T13:09:26;5.40;;;3.17;;
19877;SDS011;10101;52.204;9.910;2023-03-01T13:11:59;8.00;;;3.90;;
19877;SDS011;10101;52.204;9.910;2023-03-01T13:14:36;9.70;;;3.50;;
19877;SDS011;10101;52.204;9.910;2023-03-01T13:19:59;4.30;;;2.80;;
19877;SDS011;10101;52.204;9.910;2023-03-01T13:22:27;5.20;;;2.90;;
19877;SDS011;10101;52.204;9.910;2023-03-01T13:25:13;5.53;;;2.97;;
19877;SDS011;10101;52.204;9.910;2023-03-01T13:27:43;6.97;;;2.90;;
19877;SDS011;10101;52.204;9.910;2023-03-01T13:33:33;3.97;;;2.87;;
19877;SDS011;10101;52.204;9.910;2023-03-01T13:36:09;4.07;;;2.90;;
19877;SDS011;10101;52.204;9.910;2023-03-01T13:38:41;6.30;;;3.17;;
19877;SDS011;10101;52.204;9.910;2023-03-01T13:41:12;5.93;;;3.50;;
19877;SDS011;10101;52.204;9.910;2023-03-01T13:43:41;5.30;;;3.20;;
19877;SDS011;10101;52.204;9.910;2023-03-01T13:46:11;7.97;;;2.93;;
19877;SDS011;10101;52.204;9.910;2023-03-01T13:48:43;4.97;;;2.90;;
19877;SDS011;10101;52.204;9.910;2023-03-01T13:51:13;5.40;;;2.90;;
19877;SDS011;10101;52.204;9.910;2023-03-01T13:53:40;5.47;;;3.23;;
19877;SDS011;10101;52.204;9.910;2023-03-01T13:56:11;5.13;;;3.00;;
19877;SDS011;10101;52.204;9.910;2023-03-01T13:58:47;4.70;;;3.07;;
19877;SDS011;10101;52.204;9.910;2023-03-01T14:01:26;5.40;;;3.07;;
19877;SDS011;10101;52.204;9.910;2023-03-01T14:03:54;5.20;;;2.93;;
19877;SDS011;10101;52.204;9.910;2023-03-01T14:06:22;3.90;;;2.60;;
19877;SDS011;10101;52.204;9.910;2023-03-01T14:08:51;4.97;;;2.77;;
19877;SDS011;10101;52.204;9.910;2023-03-01T14:14:47;4.93;;;3.00;;
19877;SDS011;10101;52.204;9.910;2023-03-01T14:17:27;4.93;;;2.77;;
19877;SDS011;10101;52.204;9.910;2023-03-01T14:20:16;6.47;;;3.10;;
19877;SDS011;10101;52.204;9.910;2023-03-01T14:22:45;5.20;;;2.77;;
19877;SDS011;10101;52.204;9.910;2023-03-01T14:25:18;6.13;;;3.10;;
19877;SDS011;10101;52.204;9.910;2023-03-01T14:27:50;5.00;;;2.70;;
19877;SDS011;10101;52.204;9.910;2023-03-01T14:30:22;5.23;;;2.80;;
19877;SDS011;10101;52.204;9.910;2023-03-01T14:32:53;3.90;;;2.50;;
19877;SDS011;10101;52.204;9.910;2023-03-01T14:35:21;5.93;;;2.80;;
19877;SDS011;10101;52.204;9.910;2023-03-01T14:37:49;4.77;;;2.77;;
19877;SDS011;10101;52.204;9.910;2023-03-01T14:40:21;5.20;;;2.80;;
19877;SDS011;10101;52.204;9.910;2023-03-01T14:42:50;4.13;;;2.50;;
19877;SDS011;10101;52.204;9.910;2023-03-01T14:45:18;4.53;;;3.00;;
19877;SDS011;10101;52.204;9.910;2023-03-01T14:47:46;8.00;;;2.77;;
19877;SDS011;10101;52.204;9.910;2023-03-01T14:50:17;5.20;;;2.53;;
19877;SDS011;10101;52.204;9.910;2023-03-01T14:52:48;7.23;;;3.30;;
19877;SDS011;10101;52.204;9.910;2023-03-01T14:55:17;5.20;;;2.80;;
19877;SDS011;10101;52.204;9.910;2023-03-01T14:57:47;5.50;;;2.50;;
19877;SDS011;10101;52.204;9.910;2023-03-01T15:00:16;3.30;;;2.50;;
19877;SDS011;10101;52.204;9.910;2023-03-01T15:02:47;4.87;;;2.40;;
19877;SDS011;10101;52.204;9.910;2023-03-01T15:05:24;4.60;;;2.50;;
19877;SDS011;10101;52.204;9.910;2023-03-01T15:07:53;5.17;;;2.43;;
19877;SDS011;10101;52.204;9.910;2023-03-01T15:10:23;4.10;;;2.60;;
19877;SDS011;10101;52.204;9.910;2023-03-01T15:12:52;4.10;;;2.67;;
19877;SDS011;10101;52.204;9.910;2023-03-01T15:15:20;3.83;;;2.47;;
19877;SDS011;10101;52.204;9.910;2023-03-01T15:18:01;6.40;;;2.70;;
19877;SDS011;10101;52.204;9.910;2023-03-01T15:20:30;5.57;;;2.50;;